Gatwick, United Kingdom
Current Conditions -  °F | °C
As of 4:20 PM on Thursday 27 Nov 2014 (Local Time) from EGKK Reporting Station
Broken Clouds Broken Clouds  
Wind Chill: 46°   Ceiling: 4000
Heat Index: 48°   Visibility: 6mi
Dew Point: 48°   Wind: 5mph
Humidity: 100%   Direction: 100°E
Pressure: 29.56"   Gusts: NA
Location:  51.1°N, 0.15°W
Report Text: EGKK 271620Z 10004KT 9999 FEW012 BKN040 09/09 Q1001
Loading
Personal Weather Stations






























Interactive Weather Map New forecast layout! Learn more

10-Day Weather Forecast

Advertisements
Track Severe Weather on mobile